Latest Weather Observations for Sydney Olympic Park

IDN60801

Issued at 5:52 pm EST Friday 1 July 2022 (issued every 10 minutes, with the page automatically refreshed every 10 minutes)

About weather observations | Map of weather stations | Latest weather observations for NSW | Other Formats
Station Details ID: 066212 Name: SYDNEY OLYMPIC PARK AWS (ARCHERY CENTRE) Lat: -33.83 Lon: 151.07 Height: 4.0 m
Data from the previous 72 hours. | See also: Recent months at Sydney Olympic Park
Date/Time
EST
Temp
°C
App
Temp
°C
Dew
Point
°C
Rel
Hum
%
Delta-T
°C
Wind Press
QNH
hPa
Press
MSL
hPa
Rain since
9am
mm
Dir  Spd
km/h
Gust
km/h
Spd
kts
Gust
kts
01/05:30pm 10.8 10.7 9.6 92 0.6 CALM 0 4 0 2 - - 4.0
01/05:11pm 11.0 10.2 9.8 92 0.6 NW 4 9 2 5 - - 4.0
01/05:00pm 11.1 10.7 9.7 91 0.7 WNW 2 7 1 4 - - 4.0
01/04:37pm 11.2 11.2 9.8 91 0.7 CALM 0 6 0 3 - - 3.4
01/04:30pm 11.2 10.1 9.8 91 0.7 NW 6 9 3 5 - - 3.4
01/04:00pm 11.4 11.1 10.0 91 0.7 WNW 2 7 1 4 - - 3.2
01/03:30pm 11.6 11.7 10.0 90 0.8 CALM 0 6 0 3 - - 2.8
01/03:00pm 11.6 10.9 9.9 89 0.9 WNW 4 9 2 5 - - 2.8
01/02:30pm 11.7 11.8 10.1 90 0.8 CALM 0 6 0 3 - - 2.8
01/02:03pm 11.7 10.7 10.3 91 0.7 NW 6 7 3 4 - - 2.8
01/02:00pm 11.8 10.8 10.4 91 0.7 WNW 6 7 3 4 - - 2.8
01/01:30pm 11.6 10.3 9.9 89 0.9 WNW 7 9 4 5 - - 2.0
01/01:10pm 11.7 11.7 9.8 88 1.0 CALM 0 0 0 0 - - 1.2
01/01:00pm 11.8 11.8 9.9 88 1.0 CALM 0 6 0 3 - - 1.0
01/12:50pm 11.9 11.1 9.8 87 1.1 NW 4 7 2 4 - - 0.8
01/12:39pm 11.9 11.5 9.6 86 1.2 WNW 2 7 1 4 - - 0.4
01/12:30pm 11.9 10.7 9.5 85 1.2 WNW 6 11 3 6 - - 0.2
01/12:00pm 12.1 10.7 8.9 81 1.6 WNW 6 13 3 7 - - 0.0
01/11:30am 12.2 10.7 9.2 82 1.5 W 7 13 4 7 - - 0.0
01/11:00am 12.1 10.8 9.3 83 1.4 W 6 9 3 5 - - 0.0
01/10:30am 12.0 12.0 9.9 87 1.1 CALM 0 0 0 0 - - 0.0
01/10:00am 11.3 10.5 9.6 89 0.9 W 4 9 2 5 - - 0.0
01/09:30am 10.8 9.5 9.1 89 0.8 WNW 6 13 3 7 - - 0.0
01/09:00am 10.9 10.8 9.5 91 0.7 CALM 0 6 0 3 - - 6.8
01/08:30am 10.8 9.4 9.4 91 0.7 WNW 7 9 4 5 - - 6.8
01/08:00am 10.9 9.4 9.0 88 0.9 SW 7 15 4 8 - - 6.4
01/07:30am 10.7 8.8 9.0 89 0.8 SE 9 13 5 7 - - 6.4
01/07:00am 10.5 8.1 8.6 88 0.9 SE 11 15 6 8 - - 6.2
01/06:49am 10.5 8.1 8.6 88 0.9 SSE 11 15 6 8 - - 6.2
01/06:30am 10.6 8.7 9.2 91 0.7 SE 9 15 5 8 - - 5.8
01/06:00am 10.5 9.1 9.4 93 0.5 SSE 7 9 4 5 - - 4.4
01/05:30am 10.3 8.8 9.2 93 0.5 NNW 7 9 4 5 - - 3.0
01/05:00am 10.3 9.4 9.1 92 0.6 NW 4 9 2 5 - - 2.4
01/04:51am 10.3 9.7 9.1 92 0.6 NW 2 7 1 4 - - 2.2
01/04:30am 10.2 9.9 8.6 90 0.8 CALM 0 6 0 3 - - 1.6
01/04:15am 10.2 9.6 8.8 91 0.7 WNW 2 6 1 3 - - 1.6
01/04:00am 10.2 9.9 8.6 90 0.8 CALM 0 0 0 0 - - 1.4
01/03:54am 10.2 9.9 8.6 90 0.8 CALM 0 0 0 0 - - 1.4
01/03:30am 10.2 9.9 8.6 90 0.8 CALM 0 0 0 0 - - 0.8
01/03:00am 10.3 10.0 8.7 90 0.8 CALM 0 0 0 0 - - 0.2
01/02:30am 10.0 9.5 7.8 86 1.1 CALM 0 0 0 0 - - 0.2
01/02:00am 10.1 9.6 8.0 87 1.0 CALM 0 6 0 3 - - 0.2
01/01:30am 10.1 9.6 7.7 85 1.2 CALM 0 0 0 0 - - 0.2
01/01:00am 10.0 9.0 7.4 84 1.2 WNW 2 6 1 3 - - 0.2
01/12:30am 10.1 9.5 7.5 84 1.2 CALM 0 0 0 0 - - 0.2
01/12:00am 10.2 9.3 7.6 84 1.2 NW 2 7 1 4 - - 0.2
 
Date/Time
EST
Temp
°C
App
Temp
°C
Dew
Point
°C
Rel
Hum
%
Delta-T
°C
Wind Press
QNH
hPa
Press
MSL
hPa
Rain since
9am
mm
Dir  Spd
km/h
Gust
km/h
Spd
kts
Gust
kts
30/11:30pm 10.4 9.9 8.0 85 1.2 CALM 0 0 0 0 - - 0.2
30/11:00pm 10.3 8.6 7.7 84 1.2 NW 6 7 3 4 - - 0.2
30/10:30pm 10.3 9.8 7.7 84 1.2 CALM 0 0 0 0 - - 0.2
30/10:00pm 10.5 10.0 7.9 84 1.3 CALM 0 0 0 0 - - 0.2
30/09:30pm 10.6 10.1 8.0 84 1.3 CALM 0 0 0 0 - - 0.2
30/09:00pm 10.6 10.1 7.8 83 1.4 CALM 0 0 0 0 - - 0.2
30/08:30pm 10.6 10.1 7.8 83 1.4 CALM 0 0 0 0 - - 0.2
30/08:00pm 10.7 10.2 7.8 82 1.4 CALM 0 0 0 0 - - 0.2
30/07:30pm 10.5 9.9 7.6 82 1.4 CALM 0 6 0 3 - - 0.2
30/07:00pm 10.8 10.3 7.7 81 1.5 CALM 0 0 0 0 - - 0.2
30/06:30pm 11.1 10.5 7.4 78 1.8 CALM 0 0 0 0 - - 0.2
30/06:00pm 11.4 10.8 7.3 76 2.0 CALM 0 0 0 0 - - 0.0
30/05:30pm 12.2 11.5 7.1 71 2.5 CALM 0 0 0 0 - - 0.0
30/05:00pm 13.2 12.2 5.6 60 3.6 CALM 0 6 0 3 - - 0.0
30/04:30pm 15.2 12.8 4.3 48 5.1 SE 6 13 3 7 - - 0.0
30/04:00pm 15.6 13.2 5.2 50 4.9 SSE 7 13 4 7 - - 0.0
30/03:30pm 16.0 13.2 5.3 49 5.1 SE 9 13 5 7 - - 0.0
30/03:00pm 16.4 15.5 7.6 56 4.4 SSE 2 7 1 4 - - 0.0
30/02:30pm 16.8 15.1 7.4 54 4.7 SSW 6 9 3 5 - - 0.0
30/02:00pm 17.0 15.8 6.5 50 5.2 WSW 2 6 1 3 - - 0.0
30/01:30pm 16.9 15.8 7.0 52 4.9 SW 2 7 1 4 - - 0.0
30/01:00pm 16.8 14.8 6.3 50 5.1 WSW 6 11 3 6 - - 0.0
30/12:30pm 16.4 14.2 5.1 47 5.4 WSW 6 9 3 5 - - 0.0
30/12:00pm 15.9 12.7 5.2 49 5.1 SW 11 17 6 9 - - 0.0
30/11:30am 16.3 13.6 7.3 55 4.5 WSW 11 17 6 9 - - 0.0
30/11:00am 15.5 13.4 6.8 56 4.3 WSW 7 13 4 7 - - 0.0
30/10:30am 14.6 13.3 7.6 63 3.5 W 4 11 2 6 - - 0.0
30/10:00am 13.9 13.3 9.1 73 2.4 NW 2 7 1 4 - - 0.0
30/09:30am 13.2 13.3 10.2 82 1.6 CALM 0 0 0 0 - - 0.0
30/09:00am 11.6 11.3 8.8 83 1.4 CALM 0 0 0 0 - - 0.2
30/08:30am 10.8 10.7 9.4 91 0.7 CALM 0 0 0 0 - - 0.2
30/08:00am 10.1 9.8 8.5 90 0.8 CALM 0 0 0 0 - - 0.2
30/07:30am 9.9 9.5 8.2 89 0.8 CALM 0 0 0 0 - - 0.2
30/07:00am 10.0 9.6 8.1 88 0.9 CALM 0 0 0 0 - - 0.2
30/06:30am 10.1 9.6 7.9 86 1.1 CALM 0 0 0 0 - - 0.2
30/06:00am 10.1 9.2 7.9 86 1.1 WNW 2 7 1 4 - - 0.2
30/05:30am 10.3 9.8 7.7 84 1.2 CALM 0 6 0 3 - - 0.2
30/05:16am 10.6 10.1 7.8 83 1.4 CALM 0 6 0 3 - - 0.2
30/05:00am 10.7 9.8 7.8 82 1.4 WSW 2 7 1 4 - - 0.2
30/04:56am 10.6 10.1 7.8 83 1.4 CALM 0 7 0 4 - - 0.2
30/04:30am 10.5 10.1 8.4 87 1.0 CALM 0 0 0 0 - - 0.2
30/04:00am 10.0 8.4 8.1 88 0.9 NW 6 11 3 6 - - 0.2
30/03:30am 9.5 8.3 8.1 91 0.7 WNW 4 9 2 5 - - 0.2
30/03:00am 9.6 9.2 8.2 91 0.7 CALM 0 0 0 0 - - 0.2
30/02:30am 9.5 9.0 7.9 90 0.8 CALM 0 0 0 0 - - 0.2
30/02:00am 9.4 8.9 8.0 91 0.7 CALM 0 0 0 0 - - 0.2
30/01:30am 9.2 8.7 7.8 91 0.7 CALM 0 0 0 0 - - 0.2
30/01:00am 9.3 8.7 7.6 89 0.8 CALM 0 0 0 0 - - 0.2
30/12:30am 9.2 7.9 7.5 89 0.8 WNW 4 7 2 4 - - 0.2
30/12:00am 9.4 8.9 7.7 89 0.8 CALM 0 0 0 0 - - 0.2
 
Date/Time
EST
Temp
°C
App
Temp
°C
Dew
Point
°C
Rel
Hum
%
Delta-T
°C
Wind Press
QNH
hPa
Press
MSL
hPa
Rain since
9am
mm
Dir  Spd
km/h
Gust
km/h
Spd
kts
Gust
kts
29/11:30pm 9.7 8.8 7.8 88 0.9 WNW 2 6 1 3 - - 0.2
29/11:00pm 10.2 9.1 8.3 88 0.9 W 4 7 2 4 - - 0.2
29/10:30pm 10.3 9.1 8.2 87 1.0 W 4 9 2 5 - - 0.2
29/10:00pm 10.1 9.4 8.4 89 0.8 W 2 6 1 3 - - 0.2
29/09:30pm 10.0 9.6 8.1 88 0.9 CALM 0 2 0 1 - - 0.2
29/09:00pm 10.3 9.9 8.2 87 1.0 CALM 0 0 0 0 - - 0.2
29/08:30pm 10.3 9.8 7.7 84 1.2 CALM 0 0 0 0 - - 0.2
29/08:00pm 10.7 10.2 7.9 83 1.4 CALM 0 0 0 0 - - 0.2
29/07:30pm 11.3 10.9 8.2 81 1.5 CALM 0 0 0 0 - - 0.2
29/07:00pm 12.2 11.7 7.9 75 2.1 CALM 0 6 0 3 - - 0.2
29/06:30pm 12.1 11.7 8.2 77 1.9 CALM 0 0 0 0 - - 0.2
29/06:00pm 11.9 11.1 8.2 78 1.8 N 2 7 1 4 - - 0.2
29/05:30pm 12.0 11.5 7.9 76 2.0 CALM 0 0 0 0 - - 0.2
29/05:00pm 13.5 13.1 8.1 70 2.7 CALM 0 0 0 0 - - 0.2
29/04:30pm 15.0 14.1 7.8 62 3.6 NE 2 9 1 5 - - 0.2
29/04:00pm 15.7 14.8 7.7 59 4.0 NNE 2 9 1 5 - - 0.2
29/03:30pm 16.3 14.8 7.0 54 4.6 N 4 9 2 5 - - 0.2
29/03:00pm 17.1 15.4 7.5 53 4.8 N 6 13 3 7 - - 0.2
29/02:30pm 17.3 15.0 7.4 52 5.0 N 9 15 5 8 - - 0.2
29/02:00pm 17.3 14.0 6.5 49 5.3 NNW 13 22 7 12 - - 0.2
29/01:30pm 17.2 13.5 6.4 49 5.3 N 15 24 8 13 - - 0.2
29/01:00pm 17.7 14.6 7.2 50 5.3 NNW 13 20 7 11 - - 0.2
29/12:30pm 17.4 15.0 6.9 50 5.2 NNW 9 15 5 8 - - 0.2
29/12:00pm 17.3 15.3 7.1 51 5.1 NNW 7 15 4 8 - - 0.2
29/11:30am 16.7 16.1 8.9 60 4.0 NW 2 9 1 5 - - 0.0
29/11:00am 15.1 13.6 8.3 64 3.4 NNW 6 9 3 5 - - 0.0
29/10:30am 13.9 12.4 9.3 74 2.3 WNW 7 13 4 7 - - 0.0
29/10:00am 13.1 11.0 9.7 80 1.7 WNW 11 17 6 9 - - 0.0
29/09:30am 11.9 10.6 9.1 83 1.4 NW 6 11 3 6 - - 0.0
29/09:00am 11.1 10.3 9.5 90 0.8 NW 4 7 2 4 - - 0.0
29/08:30am 9.3 9.0 8.7 96 0.3 CALM 0 6 0 3 - - 0.0
29/08:00am 7.6 6.9 6.9 95 0.3 CALM 0 0 0 0 - - 0.0
29/07:30am 6.1 5.0 5.2 94 0.4 CALM 0 0 0 0 - - 0.0
29/07:00am 5.4 4.2 4.4 93 0.4 CALM 0 0 0 0 - - 0.0
29/06:30am 5.4 4.2 4.4 93 0.4 CALM 0 0 0 0 - - 0.0
29/06:00am 5.7 4.5 4.5 92 0.5 CALM 0 0 0 0 - - 0.0
29/05:30am 6.0 4.8 4.6 91 0.6 CALM 0 0 0 0 - - 0.0
29/05:00am 6.2 5.1 5.0 92 0.5 CALM 0 0 0 0 - - 0.0
29/04:30am 6.6 5.6 5.4 92 0.5 CALM 0 0 0 0 - - 0.0
29/04:00am 6.7 5.6 5.2 90 0.7 CALM 0 0 0 0 - - 0.0
29/03:30am 7.5 6.6 6.1 91 0.6 CALM 0 0 0 0 - - 0.0
29/03:00am 7.8 7.0 6.3 90 0.7 CALM 0 0 0 0 - - 0.0
29/02:30am 8.5 7.8 6.8 89 0.8 CALM 0 0 0 0 - - 0.0
29/02:00am 9.3 8.7 7.4 88 0.9 CALM 0 0 0 0 - - 0.0
29/01:30am 10.4 10.1 8.7 89 0.8 CALM 0 0 0 0 - - 0.0
29/01:00am 10.6 10.3 8.7 88 0.9 CALM 0 0 0 0 - - 0.0
29/12:30am 10.6 10.4 8.9 89 0.8 CALM 0 0 0 0 - - 0.0
29/12:00am 10.6 10.3 8.7 88 0.9 CALM 0 6 0 3 - - 0.0
 
Date/Time
EST
Temp
°C
App
Temp
°C
Dew
Point
°C
Rel
Hum
%
Delta-T
°C
Wind Press
QNH
hPa
Press
MSL
hPa
Rain since
9am
mm
Dir  Spd
km/h
Gust
km/h
Spd
kts
Gust
kts
28/11:30pm 10.6 10.3 8.7 88 0.9 CALM 0 0 0 0 - - 0.0
28/11:00pm 10.8 10.6 8.9 88 0.9 CALM 0 6 0 3 - - 0.0
28/10:30pm 11.3 10.1 9.4 88 1.0 NW 6 9 3 5 - - 0.0
28/10:00pm 11.3 10.0 9.2 87 1.0 WNW 6 9 3 5 - - 0.0
28/09:30pm 11.6 11.2 9.7 88 1.0 NNW 2 7 1 4 - - 0.0
28/09:00pm 11.3 11.1 9.0 86 1.1 CALM 0 0 0 0 - - 0.0
28/08:30pm 11.3 11.1 9.0 86 1.1 CALM 0 6 0 3 - - 0.0
28/08:00pm 11.5 10.9 8.9 84 1.3 SSW 2 6 1 3 - - 0.0
28/07:30pm 11.9 11.8 9.5 85 1.2 CALM 0 0 0 0 - - 0.0
28/07:00pm 11.9 11.8 9.3 84 1.3 CALM 0 0 0 0 - - 0.0
28/06:30pm 12.2 12.1 9.4 83 1.4 CALM 0 0 0 0 - - 0.0
28/06:00pm 12.4 12.3 9.4 82 1.5 CALM 0 0 0 0 - - 0.0

Other formats

Comma delimited format used in spreadsheet applications
http://www.bom.gov.au/fwo/IDN60801/IDN60801.95765.axf

JavaScript Object Notation format (JSON) in row-major order
http://www.bom.gov.au/fwo/IDN60801/IDN60801.95765.json

Data quality

Most of these data are generated automatically and are frequently updated. Quality checks on data are not normally performed. It is possible for incorrect values to appear. Refer to information at About Latest Weather Observations and please check the disclaimer before using these data.